sensor_id;sensor_type;location;lat;lon;timestamp;pressure;altitude;pressure_sealevel;temperature;humidity
5691;BME280;2870;42.680;23.364;2023-03-26T00:01:25;94641.03;;;11.93;nan
5691;BME280;2870;42.680;23.364;2023-03-26T00:03:53;94643.34;;;11.70;nan
5691;BME280;2870;42.680;23.364;2023-03-26T00:06:24;94637.50;;;11.58;nan
5691;BME280;2870;42.680;23.364;2023-03-26T00:08:52;94639.06;;;11.68;nan
5691;BME280;2870;42.680;23.364;2023-03-26T00:11:21;94650.44;;;11.71;nan
5691;BME280;2870;42.680;23.364;2023-03-26T00:13:48;94636.88;;;11.77;nan
5691;BME280;2870;42.680;23.364;2023-03-26T00:16:18;94627.38;;;11.20;nan
5691;BME280;2870;42.680;23.364;2023-03-26T00:18:46;94629.81;;;11.41;nan
5691;BME280;2870;42.680;23.364;2023-03-26T00:21:14;94619.69;;;11.73;nan
5691;BME280;2870;42.680;23.364;2023-03-26T00:23:42;94612.22;;;12.02;nan
5691;BME280;2870;42.680;23.364;2023-03-26T00:26:11;94610.19;;;12.03;nan
5691;BME280;2870;42.680;23.364;2023-03-26T00:28:38;94603.03;;;11.75;nan
5691;BME280;2870;42.680;23.364;2023-03-26T00:31:07;94608.78;;;11.94;nan
5691;BME280;2870;42.680;23.364;2023-03-26T00:33:34;94623.50;;;11.85;nan
5691;BME280;2870;42.680;23.364;2023-03-26T00:36:04;94608.16;;;11.68;nan
5691;BME280;2870;42.680;23.364;2023-03-26T00:38:34;94610.41;;;11.35;nan
5691;BME280;2870;42.680;23.364;2023-03-26T00:41:04;94613.00;;;11.68;nan
5691;BME280;2870;42.680;23.364;2023-03-26T00:43:34;94610.44;;;11.80;nan
5691;BME280;2870;42.680;23.364;2023-03-26T00:46:01;94615.25;;;11.87;nan
5691;BME280;2870;42.680;23.364;2023-03-26T00:48:28;94609.94;;;12.08;nan
5691;BME280;2870;42.680;23.364;2023-03-26T00:50:56;94610.97;;;12.13;nan
5691;BME280;2870;42.680;23.364;2023-03-26T00:53:22;94611.44;;;12.19;nan
5691;BME280;2870;42.680;23.364;2023-03-26T00:55:49;94614.09;;;12.17;nan
5691;BME280;2870;42.680;23.364;2023-03-26T00:58:17;94613.78;;;11.86;nan
5691;BME280;2870;42.680;23.364;2023-03-26T01:00:50;94604.50;;;11.76;nan
5691;BME280;2870;42.680;23.364;2023-03-26T01:03:18;94559.34;;;11.47;nan
5691;BME280;2870;42.680;23.364;2023-03-26T01:05:48;94606.88;;;11.79;nan
5691;BME280;2870;42.680;23.364;2023-03-26T01:08:26;94579.31;;;11.51;nan
5691;BME280;2870;42.680;23.364;2023-03-26T01:10:56;94617.63;;;11.90;nan
5691;BME280;2870;42.680;23.364;2023-03-26T01:13:31;94618.97;;;11.72;nan
5691;BME280;2870;42.680;23.364;2023-03-26T01:16:00;94619.41;;;11.68;nan
5691;BME280;2870;42.680;23.364;2023-03-26T01:18:30;94622.72;;;11.57;nan
5691;BME280;2870;42.680;23.364;2023-03-26T01:21:06;94617.00;;;11.30;nan
5691;BME280;2870;42.680;23.364;2023-03-26T01:23:44;94628.22;;;11.48;nan
5691;BME280;2870;42.680;23.364;2023-03-26T01:26:27;94622.44;;;11.28;nan
5691;BME280;2870;42.680;23.364;2023-03-26T01:28:59;94612.72;;;11.29;nan
5691;BME280;2870;42.680;23.364;2023-03-26T01:31:31;94636.66;;;11.65;nan
5691;BME280;2870;42.680;23.364;2023-03-26T01:34:08;94644.69;;;11.86;nan
5691;BME280;2870;42.680;23.364;2023-03-26T01:36:41;94646.66;;;11.93;nan
5691;BME280;2870;42.680;23.364;2023-03-26T01:39:15;94646.47;;;11.91;nan
5691;BME280;2870;42.680;23.364;2023-03-26T01:41:50;94640.34;;;11.67;nan
5691;BME280;2870;42.680;23.364;2023-03-26T01:44:25;94645.59;;;11.54;nan
5691;BME280;2870;42.680;23.364;2023-03-26T01:46:54;94641.94;;;11.44;nan
5691;BME280;2870;42.680;23.364;2023-03-26T01:49:22;94646.13;;;11.18;nan
5691;BME280;2870;42.680;23.364;2023-03-26T01:51:49;94651.47;;;11.06;nan
5691;BME280;2870;42.680;23.364;2023-03-26T01:54:19;94648.88;;;11.43;nan
5691;BME280;2870;42.680;23.364;2023-03-26T01:56:59;94647.06;;;11.37;nan
5691;BME280;2870;42.680;23.364;2023-03-26T01:59:48;94648.63;;;11.48;nan
5691;BME280;2870;42.680;23.364;2023-03-26T02:02:25;94646.81;;;11.60;nan
5691;BME280;2870;42.680;23.364;2023-03-26T02:05:01;94650.44;;;11.36;nan
5691;BME280;2870;42.680;23.364;2023-03-26T02:07:33;94640.06;;;11.46;nan
5691;BME280;2870;42.680;23.364;2023-03-26T02:10:07;94639.31;;;11.63;nan
5691;BME280;2870;42.680;23.364;2023-03-26T02:12:38;94637.00;;;10.92;nan
5691;BME280;2870;42.680;23.364;2023-03-26T02:15:07;94646.50;;;10.97;nan
5691;BME280;2870;42.680;23.364;2023-03-26T02:17:34;94644.63;;;11.17;nan
5691;BME280;2870;42.680;23.364;2023-03-26T02:20:05;94649.25;;;11.22;nan
5691;BME280;2870;42.680;23.364;2023-03-26T02:22:33;94650.81;;;11.15;nan
5691;BME280;2870;42.680;23.364;2023-03-26T02:25:07;94648.69;;;10.81;nan
5691;BME280;2870;42.680;23.364;2023-03-26T02:27:34;94637.84;;;11.02;nan
5691;BME280;2870;42.680;23.364;2023-03-26T02:30:02;94646.66;;;10.99;nan
5691;BME280;2870;42.680;23.364;2023-03-26T02:32:29;94629.31;;;10.43;nan
5691;BME280;2870;42.680;23.364;2023-03-26T02:34:56;94646.50;;;10.72;nan
5691;BME280;2870;42.680;23.364;2023-03-26T02:37:24;94638.84;;;10.72;nan
5691;BME280;2870;42.680;23.364;2023-03-26T02:39:51;94638.91;;;10.90;nan
5691;BME280;2870;42.680;23.364;2023-03-26T02:42:18;94645.53;;;11.02;nan
5691;BME280;2870;42.680;23.364;2023-03-26T02:44:45;94656.63;;;10.92;nan
5691;BME280;2870;42.680;23.364;2023-03-26T02:47:14;94646.03;;;10.83;nan
5691;BME280;2870;42.680;23.364;2023-03-26T02:49:41;94649.19;;;10.87;nan
5691;BME280;2870;42.680;23.364;2023-03-26T02:52:08;94662.19;;;11.00;nan
5691;BME280;2870;42.680;23.364;2023-03-26T02:54:35;94658.88;;;10.69;nan
5691;BME280;2870;42.680;23.364;2023-03-26T02:57:02;94656.75;;;10.77;nan
5691;BME280;2870;42.680;23.364;2023-03-26T02:59:29;94671.53;;;10.77;nan
5691;BME280;2870;42.680;23.364;2023-03-26T03:01:56;94678.56;;;10.86;nan
5691;BME280;2870;42.680;23.364;2023-03-26T03:04:24;94678.91;;;10.65;nan
5691;BME280;2870;42.680;23.364;2023-03-26T03:06:51;94680.63;;;10.60;nan
5691;BME280;2870;42.680;23.364;2023-03-26T03:09:22;94667.16;;;10.59;nan
5691;BME280;2870;42.680;23.364;2023-03-26T03:11:49;94677.69;;;10.51;nan
5691;BME280;2870;42.680;23.364;2023-03-26T03:14:16;94674.28;;;10.27;nan
5691;BME280;2870;42.680;23.364;2023-03-26T03:16:43;94678.94;;;10.32;nan
5691;BME280;2870;42.680;23.364;2023-03-26T03:19:10;94687.91;;;10.64;nan
5691;BME280;2870;42.680;23.364;2023-03-26T03:21:39;94695.06;;;10.49;nan
5691;BME280;2870;42.680;23.364;2023-03-26T03:24:06;94693.75;;;10.18;nan
5691;BME280;2870;42.680;23.364;2023-03-26T03:26:33;94693.59;;;10.08;nan
5691;BME280;2870;42.680;23.364;2023-03-26T03:29:00;94699.91;;;10.24;nan
5691;BME280;2870;42.680;23.364;2023-03-26T03:31:27;94692.19;;;10.32;nan
5691;BME280;2870;42.680;23.364;2023-03-26T03:33:54;94695.06;;;10.17;nan
5691;BME280;2870;42.680;23.364;2023-03-26T03:36:21;94691.94;;;10.45;nan
5691;BME280;2870;42.680;23.364;2023-03-26T03:38:50;94698.66;;;10.50;nan
5691;BME280;2870;42.680;23.364;2023-03-26T03:41:16;94687.41;;;10.17;nan
5691;BME280;2870;42.680;23.364;2023-03-26T03:43:43;94687.56;;;10.19;nan
5691;BME280;2870;42.680;23.364;2023-03-26T03:46:10;94685.28;;;10.33;nan
5691;BME280;2870;42.680;23.364;2023-03-26T03:48:37;94696.13;;;10.29;nan
5691;BME280;2870;42.680;23.364;2023-03-26T03:51:04;94692.56;;;9.80;nan
5691;BME280;2870;42.680;23.364;2023-03-26T03:53:31;94699.31;;;9.70;nan
5691;BME280;2870;42.680;23.364;2023-03-26T03:56:03;94703.63;;;9.71;nan
5691;BME280;2870;42.680;23.364;2023-03-26T03:58:34;94694.53;;;10.03;nan
5691;BME280;2870;42.680;23.364;2023-03-26T04:01:02;94699.59;;;10.04;nan
5691;BME280;2870;42.680;23.364;2023-03-26T04:03:29;94705.41;;;9.99;nan
5691;BME280;2870;42.680;23.364;2023-03-26T04:05:56;94700.28;;;10.13;nan
5691;BME280;2870;42.680;23.364;2023-03-26T04:08:23;94707.47;;;9.98;nan
5691;BME280;2870;42.680;23.364;2023-03-26T04:10:50;94698.97;;;10.14;nan
5691;BME280;2870;42.680;23.364;2023-03-26T04:13:18;94720.53;;;9.96;nan
5691;BME280;2870;42.680;23.364;2023-03-26T04:15:45;94729.66;;;10.04;nan
5691;BME280;2870;42.680;23.364;2023-03-26T04:18:12;94733.28;;;10.37;nan
5691;BME280;2870;42.680;23.364;2023-03-26T04:20:40;94733.13;;;10.35;nan
5691;BME280;2870;42.680;23.364;2023-03-26T04:23:11;94749.13;;;9.94;nan
5691;BME280;2870;42.680;23.364;2023-03-26T04:25:39;94760.63;;;10.14;nan
5691;BME280;2870;42.680;23.364;2023-03-26T04:28:07;94761.31;;;10.37;nan
5691;BME280;2870;42.680;23.364;2023-03-26T04:30:37;94771.69;;;10.59;nan
5691;BME280;2870;42.680;23.364;2023-03-26T04:33:09;94782.78;;;10.42;nan
5691;BME280;2870;42.680;23.364;2023-03-26T04:35:40;94786.91;;;10.81;nan
5691;BME280;2870;42.680;23.364;2023-03-26T04:38:09;94778.97;;;10.95;nan
5691;BME280;2870;42.680;23.364;2023-03-26T04:40:37;94791.31;;;10.59;nan
5691;BME280;2870;42.680;23.364;2023-03-26T04:43:04;94804.16;;;10.70;nan
5691;BME280;2870;42.680;23.364;2023-03-26T04:45:31;94804.22;;;10.95;nan
5691;BME280;2870;42.680;23.364;2023-03-26T04:47:59;94800.56;;;10.77;nan
5691;BME280;2870;42.680;23.364;2023-03-26T04:50:26;94750.81;;;10.45;nan
5691;BME280;2870;42.680;23.364;2023-03-26T04:52:54;94791.97;;;10.75;nan
5691;BME280;2870;42.680;23.364;2023-03-26T04:55:24;94792.34;;;10.79;nan
5691;BME280;2870;42.680;23.364;2023-03-26T04:57:56;94799.25;;;10.46;nan
5691;BME280;2870;42.680;23.364;2023-03-26T05:00:28;94794.78;;;10.35;nan
5691;BME280;2870;42.680;23.364;2023-03-26T05:02:54;94795.69;;;10.45;nan
5691;BME280;2870;42.680;23.364;2023-03-26T05:05:24;94788.75;;;10.46;nan
5691;BME280;2870;42.680;23.364;2023-03-26T05:07:53;94791.31;;;10.59;nan
5691;BME280;2870;42.680;23.364;2023-03-26T05:10:20;94789.00;;;10.73;nan
5691;BME280;2870;42.680;23.364;2023-03-26T05:12:47;94795.38;;;10.74;nan
5691;BME280;2870;42.680;23.364;2023-03-26T05:15:14;94809.81;;;10.63;nan
5691;BME280;2870;42.680;23.364;2023-03-26T05:17:41;94806.16;;;10.85;nan
5691;BME280;2870;42.680;23.364;2023-03-26T05:20:15;94814.47;;;11.00;nan
5691;BME280;2870;42.680;23.364;2023-03-26T05:22:46;94811.16;;;10.61;nan
5691;BME280;2870;42.680;23.364;2023-03-26T05:25:13;94810.94;;;10.67;nan
5691;BME280;2870;42.680;23.364;2023-03-26T05:27:41;94823.47;;;10.58;nan
5691;BME280;2870;42.680;23.364;2023-03-26T05:30:08;94825.44;;;11.13;nan
5691;BME280;2870;42.680;23.364;2023-03-26T05:32:35;94814.31;;;10.98;nan
5691;BME280;2870;42.680;23.364;2023-03-26T05:35:02;94827.00;;;11.07;nan
5691;BME280;2870;42.680;23.364;2023-03-26T05:37:30;94821.50;;;10.84;nan
5691;BME280;2870;42.680;23.364;2023-03-26T05:39:58;94820.56;;;11.14;nan
5691;BME280;2870;42.680;23.364;2023-03-26T05:42:25;94813.03;;;10.92;nan
5691;BME280;2870;42.680;23.364;2023-03-26T05:44:53;94813.78;;;10.52;nan
5691;BME280;2870;42.680;23.364;2023-03-26T05:47:20;94826.91;;;10.42;nan
5691;BME280;2870;42.680;23.364;2023-03-26T05:49:46;94835.50;;;10.51;nan
5691;BME280;2870;42.680;23.364;2023-03-26T05:52:13;94832.47;;;10.49;nan
5691;BME280;2870;42.680;23.364;2023-03-26T05:54:43;94828.13;;;10.64;nan
5691;BME280;2870;42.680;23.364;2023-03-26T05:57:11;94840.69;;;10.63;nan
5691;BME280;2870;42.680;23.364;2023-03-26T05:59:38;94835.50;;;10.51;nan
5691;BME280;2870;42.680;23.364;2023-03-26T06:02:06;94824.16;;;10.74;nan
5691;BME280;2870;42.680;23.364;2023-03-26T06:04:32;94819.78;;;10.48;nan
5691;BME280;2870;42.680;23.364;2023-03-26T06:06:59;94819.41;;;10.52;nan
5691;BME280;2870;42.680;23.364;2023-03-26T06:09:28;94828.31;;;10.66;nan
5691;BME280;2870;42.680;23.364;2023-03-26T06:11:54;94817.50;;;10.95;nan
5691;BME280;2870;42.680;23.364;2023-03-26T06:14:23;94818.88;;;11.19;nan
5691;BME280;2870;42.680;23.364;2023-03-26T06:16:49;94815.78;;;11.32;nan
5691;BME280;2870;42.680;23.364;2023-03-26T06:19:16;94819.97;;;11.48;nan
5691;BME280;2870;42.680;23.364;2023-03-26T06:21:43;94816.22;;;11.46;nan
5691;BME280;2870;42.680;23.364;2023-03-26T06:24:10;94823.91;;;11.20;nan
5691;BME280;2870;42.680;23.364;2023-03-26T06:26:36;94824.75;;;11.55;nan
5691;BME280;2870;42.680;23.364;2023-03-26T06:29:04;94822.97;;;11.92;nan
5691;BME280;2870;42.680;23.364;2023-03-26T06:31:32;94813.47;;;12.05;nan
5691;BME280;2870;42.680;23.364;2023-03-26T06:33:59;94811.50;;;12.15;nan
5691;BME280;2870;42.680;23.364;2023-03-26T06:36:25;94829.72;;;12.32;nan
5691;BME280;2870;42.680;23.364;2023-03-26T06:38:52;94816.72;;;11.77;nan
5691;BME280;2870;42.680;23.364;2023-03-26T06:41:19;94816.94;;;11.96;nan
5691;BME280;2870;42.680;23.364;2023-03-26T06:43:46;94826.16;;;12.49;nan
5691;BME280;2870;42.680;23.364;2023-03-26T06:46:14;94791.13;;;12.42;nan
5691;BME280;2870;42.680;23.364;2023-03-26T06:48:42;94812.31;;;13.32;nan
5691;BME280;2870;42.680;23.364;2023-03-26T06:51:09;94830.28;;;13.73;nan
5691;BME280;2870;42.680;23.364;2023-03-26T06:53:36;94836.25;;;13.87;nan
5691;BME280;2870;42.680;23.364;2023-03-26T06:56:03;94834.13;;;14.24;nan
5691;BME280;2870;42.680;23.364;2023-03-26T06:58:29;94844.94;;;13.62;nan
5691;BME280;2870;42.680;23.364;2023-03-26T07:00:56;94854.25;;;14.11;nan
5691;BME280;2870;42.680;23.364;2023-03-26T07:03:23;94855.53;;;15.04;nan
5691;BME280;2870;42.680;23.364;2023-03-26T07:05:51;94859.84;;;14.76;nan
5691;BME280;2870;42.680;23.364;2023-03-26T07:08:18;94871.72;;;14.84;nan
5691;BME280;2870;42.680;23.364;2023-03-26T07:10:45;94867.00;;;14.77;nan
5691;BME280;2870;42.680;23.364;2023-03-26T07:13:12;94864.03;;;14.75;nan
5691;BME280;2870;42.680;23.364;2023-03-26T07:15:39;94813.94;;;15.46;nan
5691;BME280;2870;42.680;23.364;2023-03-26T07:18:06;94863.56;;;16.94;nan
5691;BME280;2870;42.680;23.364;2023-03-26T07:20:34;94855.16;;;15.89;nan
5691;BME280;2870;42.680;23.364;2023-03-26T07:23:02;94847.28;;;16.09;nan
5691;BME280;2870;42.680;23.364;2023-03-26T07:25:30;94844.28;;;16.17;nan
5691;BME280;2870;42.680;23.364;2023-03-26T07:28:04;94853.94;;;16.24;nan
5691;BME280;2870;42.680;23.364;2023-03-26T07:30:45;94848.44;;;17.46;nan
5691;BME280;2870;42.680;23.364;2023-03-26T07:33:17;94838.41;;;16.67;nan
5691;BME280;2870;42.680;23.364;2023-03-26T07:35:52;94840.03;;;17.25;nan
5691;BME280;2870;42.680;23.364;2023-03-26T07:38:35;94842.38;;;19.32;nan
5691;BME280;2870;42.680;23.364;2023-03-26T07:41:10;94842.81;;;19.66;nan
5691;BME280;2870;42.680;23.364;2023-03-26T07:43:59;94846.88;;;18.37;nan
5691;BME280;2870;42.680;23.364;2023-03-26T07:46:29;94837.41;;;18.21;nan
5691;BME280;2870;42.680;23.364;2023-03-26T07:48:58;94840.25;;;17.74;nan
5691;BME280;2870;42.680;23.364;2023-03-26T07:51:27;94843.72;;;19.56;nan
5691;BME280;2870;42.680;23.364;2023-03-26T07:53:56;94846.84;;;18.49;nan
5691;BME280;2870;42.680;23.364;2023-03-26T07:56:31;94845.44;;;19.62;nan
5691;BME280;2870;42.680;23.364;2023-03-26T07:59:08;94846.78;;;20.82;nan
5691;BME280;2870;42.680;23.364;2023-03-26T08:02:00;94839.28;;;19.28;nan
5691;BME280;2870;42.680;23.364;2023-03-26T08:07:40;94829.50;;;17.72;nan
5691;BME280;2870;42.680;23.364;2023-03-26T08:10:15;94832.59;;;18.23;nan
5691;BME280;2870;42.680;23.364;2023-03-26T08:12:52;94831.50;;;17.82;nan
5691;BME280;2870;42.680;23.364;2023-03-26T08:15:25;94833.22;;;19.33;nan
5691;BME280;2870;42.680;23.364;2023-03-26T08:17:59;94831.84;;;19.60;nan
5691;BME280;2870;42.680;23.364;2023-03-26T08:20:35;94835.59;;;19.00;nan
5691;BME280;2870;42.680;23.364;2023-03-26T08:23:09;94843.50;;;21.17;nan
5691;BME280;2870;42.680;23.364;2023-03-26T08:25:49;94845.34;;;21.11;nan
5691;BME280;2870;42.680;23.364;2023-03-26T08:28:28;94841.13;;;21.41;nan
5691;BME280;2870;42.680;23.364;2023-03-26T08:30:57;94833.44;;;19.63;nan
5691;BME280;2870;42.680;23.364;2023-03-26T08:33:27;94839.75;;;18.85;nan
5691;BME280;2870;42.680;23.364;2023-03-26T08:35:54;94836.75;;;20.12;nan
5691;BME280;2870;42.680;23.364;2023-03-26T08:38:21;94837.41;;;19.97;nan
5691;BME280;2870;42.680;23.364;2023-03-26T08:44:29;94836.44;;;19.53;nan
5691;BME280;2870;42.680;23.364;2023-03-26T08:47:51;94825.41;;;18.83;nan
5691;BME280;2870;42.680;23.364;2023-03-26T08:54:08;94831.97;;;20.86;nan
5691;BME280;2870;42.680;23.364;2023-03-26T08:56:46;94828.78;;;20.50;nan
5691;BME280;2870;42.680;23.364;2023-03-26T08:59:39;94827.69;;;20.57;nan
5691;BME280;2870;42.680;23.364;2023-03-26T09:05:44;94824.97;;;20.04;nan
5691;BME280;2870;42.680;23.364;2023-03-26T09:14:34;94831.22;;;21.29;nan
5691;BME280;2870;42.680;23.364;2023-03-26T09:23:29;94815.47;;;20.13;nan
5691;BME280;2870;42.680;23.364;2023-03-26T09:26:16;94807.28;;;19.27;nan
5691;BME280;2870;42.680;23.364;2023-03-26T09:29:37;94814.59;;;17.72;nan
5691;BME280;2870;42.680;23.364;2023-03-26T09:35:26;94800.63;;;18.23;nan
5691;BME280;2870;42.680;23.364;2023-03-26T09:38:00;94793.84;;;19.42;nan
5691;BME280;2870;42.680;23.364;2023-03-26T09:40:37;94804.09;;;18.59;nan
5691;BME280;2870;42.680;23.364;2023-03-26T09:43:35;94810.13;;;20.90;nan
5691;BME280;2870;42.680;23.364;2023-03-26T09:46:15;94798.78;;;20.35;nan
5691;BME280;2870;42.680;23.364;2023-03-26T09:48:52;94801.38;;;19.63;nan
5691;BME280;2870;42.680;23.364;2023-03-26T09:51:38;94794.97;;;18.97;nan
5691;BME280;2870;42.680;23.364;2023-03-26T09:57:07;94788.25;;;20.52;nan
5691;BME280;2870;42.680;23.364;2023-03-26T09:59:59;94789.31;;;20.31;nan
5691;BME280;2870;42.680;23.364;2023-03-26T10:02:44;94774.16;;;18.81;nan
5691;BME280;2870;42.680;23.364;2023-03-26T10:05:21;94773.13;;;20.92;nan
5691;BME280;2870;42.680;23.364;2023-03-26T10:08:05;94767.16;;;21.16;nan
5691;BME280;2870;42.680;23.364;2023-03-26T10:10:42;94765.66;;;21.76;nan
5691;BME280;2870;42.680;23.364;2023-03-26T10:13:22;94767.84;;;22.25;nan
5691;BME280;2870;42.680;23.364;2023-03-26T10:16:01;94756.63;;;21.50;nan
5691;BME280;2870;42.680;23.364;2023-03-26T10:18:38;94755.81;;;22.62;nan
5691;BME280;2870;42.680;23.364;2023-03-26T10:21:17;94752.66;;;20.96;nan
5691;BME280;2870;42.680;23.364;2023-03-26T10:24:02;94749.88;;;20.25;nan
5691;BME280;2870;42.680;23.364;2023-03-26T10:26:50;94748.09;;;21.21;nan
5691;BME280;2870;42.680;23.364;2023-03-26T10:32:19;94732.25;;;20.01;nan
5691;BME280;2870;42.680;23.364;2023-03-26T10:34:56;94720.38;;;19.77;nan
5691;BME280;2870;42.680;23.364;2023-03-26T10:37:35;94730.66;;;21.60;nan
5691;BME280;2870;42.680;23.364;2023-03-26T10:40:22;94730.56;;;21.74;nan
5691;BME280;2870;42.680;23.364;2023-03-26T10:43:14;94723.59;;;22.26;nan
5691;BME280;2870;42.680;23.364;2023-03-26T10:45:58;94722.16;;;22.43;nan
5691;BME280;2870;42.680;23.364;2023-03-26T10:48:50;94706.59;;;20.43;nan
5691;BME280;2870;42.680;23.364;2023-03-26T10:51:33;94708.84;;;21.66;nan
5691;BME280;2870;42.680;23.364;2023-03-26T10:54:14;94705.75;;;21.15;nan
5691;BME280;2870;42.680;23.364;2023-03-26T10:56:46;94688.50;;;20.66;nan
5691;BME280;2870;42.680;23.364;2023-03-26T10:59:15;94683.56;;;19.95;nan
5691;BME280;2870;42.680;23.364;2023-03-26T11:01:47;94692.09;;;18.87;nan
5691;BME280;2870;42.680;23.364;2023-03-26T11:04:25;94690.53;;;20.35;nan
5691;BME280;2870;42.680;23.364;2023-03-26T11:07:05;94691.06;;;20.75;nan
5691;BME280;2870;42.680;23.364;2023-03-26T11:09:40;94695.41;;;19.09;nan
5691;BME280;2870;42.680;23.364;2023-03-26T11:12:17;94694.59;;;19.34;nan
5691;BME280;2870;42.680;23.364;2023-03-26T11:14:54;94649.47;;;18.87;nan
5691;BME280;2870;42.680;23.364;2023-03-26T11:17:33;94679.69;;;19.75;nan
5691;BME280;2870;42.680;23.364;2023-03-26T11:20:06;94672.75;;;18.97;nan
5691;BME280;2870;42.680;23.364;2023-03-26T11:22:45;94663.00;;;19.14;nan
5691;BME280;2870;42.680;23.364;2023-03-26T11:25:35;94673.53;;;19.12;nan
5691;BME280;2870;42.680;23.364;2023-03-26T11:28:14;94665.59;;;18.45;nan
5691;BME280;2870;42.680;23.364;2023-03-26T11:30:45;94666.69;;;18.26;nan
5691;BME280;2870;42.680;23.364;2023-03-26T11:33:17;94656.97;;;18.43;nan
5691;BME280;2870;42.680;23.364;2023-03-26T11:35:47;94654.06;;;17.92;nan
5691;BME280;2870;42.680;23.364;2023-03-26T11:38:18;94656.00;;;17.41;nan
5691;BME280;2870;42.680;23.364;2023-03-26T11:40:49;94646.84;;;17.66;nan
5691;BME280;2870;42.680;23.364;2023-03-26T11:43:22;94651.53;;;18.73;nan
5691;BME280;2870;42.680;23.364;2023-03-26T11:45:50;94639.88;;;18.04;nan
5691;BME280;2870;42.680;23.364;2023-03-26T11:48:22;94643.44;;;18.05;nan
5691;BME280;2870;42.680;23.364;2023-03-26T11:50:55;94620.06;;;17.81;nan
5691;BME280;2870;42.680;23.364;2023-03-26T11:53:27;94621.88;;;18.25;nan
5691;BME280;2870;42.680;23.364;2023-03-26T11:55:58;94616.88;;;17.63;nan
5691;BME280;2870;42.680;23.364;2023-03-26T11:58:31;94608.25;;;18.10;nan
5691;BME280;2870;42.680;23.364;2023-03-26T12:01:03;94605.44;;;17.61;nan
5691;BME280;2870;42.680;23.364;2023-03-26T12:03:31;94558.03;;;17.75;nan
5691;BME280;2870;42.680;23.364;2023-03-26T12:05:58;94593.69;;;18.15;nan
5691;BME280;2870;42.680;23.364;2023-03-26T12:08:31;94579.91;;;17.72;nan
5691;BME280;2870;42.680;23.364;2023-03-26T12:11:03;94580.09;;;18.14;nan
5691;BME280;2870;42.680;23.364;2023-03-26T12:13:38;94587.16;;;17.64;nan
5691;BME280;2870;42.680;23.364;2023-03-26T12:16:14;94541.81;;;17.52;nan
5691;BME280;2870;42.680;23.364;2023-03-26T12:18:42;94587.19;;;18.01;nan
5691;BME280;2870;42.680;23.364;2023-03-26T12:21:11;94575.97;;;18.68;nan
5691;BME280;2870;42.680;23.364;2023-03-26T12:23:53;94575.09;;;18.65;nan
5691;BME280;2870;42.680;23.364;2023-03-26T12:26:29;94567.94;;;18.64;nan
5691;BME280;2870;42.680;23.364;2023-03-26T12:29:05;94560.94;;;18.40;nan
5691;BME280;2870;42.680;23.364;2023-03-26T12:31:41;94555.94;;;18.66;nan
5691;BME280;2870;42.680;23.364;2023-03-26T12:34:16;94545.47;;;18.04;nan
5691;BME280;2870;42.680;23.364;2023-03-26T12:36:47;94560.09;;;18.37;nan
5691;BME280;2870;42.680;23.364;2023-03-26T12:39:26;94546.13;;;18.41;nan
5691;BME280;2870;42.680;23.364;2023-03-26T12:41:55;94540.84;;;18.36;nan
5691;BME280;2870;42.680;23.364;2023-03-26T12:44:27;94538.88;;;18.52;nan
5691;BME280;2870;42.680;23.364;2023-03-26T12:47:09;94521.91;;;18.01;nan
5691;BME280;2870;42.680;23.364;2023-03-26T12:49:40;94531.00;;;18.11;nan
5691;BME280;2870;42.680;23.364;2023-03-26T12:52:25;94531.50;;;18.47;nan
5691;BME280;2870;42.680;23.364;2023-03-26T12:55:01;94526.84;;;17.75;nan
5691;BME280;2870;42.680;23.364;2023-03-26T12:57:35;94511.53;;;18.06;nan
5691;BME280;2870;42.680;23.364;2023-03-26T13:00:26;94522.09;;;18.17;nan
5691;BME280;2870;42.680;23.364;2023-03-26T13:03:06;94518.41;;;17.52;nan
5691;BME280;2870;42.680;23.364;2023-03-26T13:05:46;94519.91;;;18.04;nan
5691;BME280;2870;42.680;23.364;2023-03-26T13:08:44;94524.34;;;18.46;nan
5691;BME280;2870;42.680;23.364;2023-03-26T13:11:23;94526.31;;;18.83;nan
5691;BME280;2870;42.680;23.364;2023-03-26T13:14:20;94514.09;;;18.94;nan
5691;BME280;2870;42.680;23.364;2023-03-26T13:16:59;94497.28;;;18.84;nan
5691;BME280;2870;42.680;23.364;2023-03-26T13:19:33;94509.50;;;19.00;nan
5691;BME280;2870;42.680;23.364;2023-03-26T13:22:13;94501.06;;;18.22;nan
5691;BME280;2870;42.680;23.364;2023-03-26T13:24:47;94503.25;;;18.10;nan
5691;BME280;2870;42.680;23.364;2023-03-26T13:27:28;94502.69;;;18.52;nan
5691;BME280;2870;42.680;23.364;2023-03-26T13:30:02;94504.06;;;17.98;nan
5691;BME280;2870;42.680;23.364;2023-03-26T13:32:46;94510.19;;;17.81;nan
5691;BME280;2870;42.680;23.364;2023-03-26T13:35:26;94496.09;;;17.83;nan
5691;BME280;2870;42.680;23.364;2023-03-26T13:38:00;94496.28;;;18.38;nan
5691;BME280;2870;42.680;23.364;2023-03-26T13:40:35;94473.16;;;18.58;nan
5691;BME280;2870;42.680;23.364;2023-03-26T13:43:20;94504.59;;;18.48;nan
5691;BME280;2870;42.680;23.364;2023-03-26T13:45:56;94458.56;;;18.10;nan
5691;BME280;2870;42.680;23.364;2023-03-26T13:48:30;94497.88;;;18.55;nan
5691;BME280;2870;42.680;23.364;2023-03-26T13:51:02;94486.13;;;18.74;nan
5691;BME280;2870;42.680;23.364;2023-03-26T13:53:37;94487.09;;;18.79;nan
5691;BME280;2870;42.680;23.364;2023-03-26T13:56:09;94480.31;;;18.59;nan
5691;BME280;2870;42.680;23.364;2023-03-26T13:58:41;94490.81;;;18.56;nan
5691;BME280;2870;42.680;23.364;2023-03-26T14:01:13;94473.56;;;18.66;nan
5691;BME280;2870;42.680;23.364;2023-03-26T14:03:51;94477.56;;;18.47;nan
5691;BME280;2870;42.680;23.364;2023-03-26T14:06:34;94484.91;;;18.66;nan
5691;BME280;2870;42.680;23.364;2023-03-26T14:09:11;94481.66;;;18.58;nan
5691;BME280;2870;42.680;23.364;2023-03-26T14:11:50;94467.56;;;18.60;nan
5691;BME280;2870;42.680;23.364;2023-03-26T14:14:27;94460.84;;;18.39;nan
5691;BME280;2870;42.680;23.364;2023-03-26T14:17:01;94470.22;;;18.56;nan
5691;BME280;2870;42.680;23.364;2023-03-26T14:20:00;94465.53;;;18.21;nan
5691;BME280;2870;42.680;23.364;2023-03-26T14:22:40;94457.47;;;17.90;nan
5691;BME280;2870;42.680;23.364;2023-03-26T14:25:24;94459.72;;;17.80;nan
5691;BME280;2870;42.680;23.364;2023-03-26T14:28:05;94459.78;;;17.93;nan
5691;BME280;2870;42.680;23.364;2023-03-26T14:31:01;94461.75;;;18.16;nan
5691;BME280;2870;42.680;23.364;2023-03-26T14:33:48;94453.69;;;18.38;nan
5691;BME280;2870;42.680;23.364;2023-03-26T14:36:25;94463.03;;;18.27;nan
5691;BME280;2870;42.680;23.364;2023-03-26T14:39:22;94454.94;;;18.35;nan